Time;durP1;ratioP1;P1;durP2;ratioP2;P2;SDS_P1;SDS_P2;PMS_P1;PMS_P2;Temp;Humidity;BMP_temperature;BMP_pressure;BME280_temperature;BME280_humidity;BME280_pressure;Samples;Min_cycle;Max_cycle;Signal;HPM_P1;HPM_P2
2022/04/17 00:00:23;;;;;;;4.07;2.80;;;8.70;1.00;;;;;;4974383;28;20214;-61
2022/04/17 00:02:50;;;;;;;4.97;2.97;;;8.70;1.00;;;;;;4974470;28;20213;-61
2022/04/17 00:05:17;;;;;;;5.30;2.53;;;8.70;1.00;;;;;;4974431;28;20276;-61
2022/04/17 00:07:44;;;;;;;4.13;2.80;;;8.60;1.00;;;;;;4974015;28;20201;-62
2022/04/17 00:10:11;;;;;;;3.63;2.70;;;8.60;1.00;;;;;;4974381;28;20217;-62
2022/04/17 00:12:40;;;;;;;4.43;2.83;;;8.70;1.00;;;;;;4974195;28;20202;-62
2022/04/17 00:15:10;;;;;;;5.13;2.90;;;8.70;1.00;;;;;;4974252;28;20291;-62
2022/04/17 00:17:42;;;;;;;5.13;2.40;;;8.70;1.00;;;;;;4974287;28;20198;-62
2022/04/17 00:20:10;;;;;;;3.10;2.80;;;8.70;1.00;;;;;;4974364;28;20182;-62
2022/04/17 00:22:37;;;;;;;4.67;2.73;;;8.70;1.00;;;;;;4974189;28;20225;-61
2022/04/17 00:25:07;;;;;;;7.27;3.07;;;8.80;1.00;;;;;;4974002;28;20241;-61
2022/04/17 00:27:34;;;;;;;4.07;2.43;;;8.80;1.00;;;;;;4974082;28;20201;-61
2022/04/17 00:30:01;;;;;;;5.90;2.80;;;8.80;1.00;;;;;;4973683;28;20203;-62
2022/04/17 00:32:31;;;;;;;5.30;2.83;;;8.80;1.00;;;;;;4973662;28;20206;-61
2022/04/17 00:34:58;;;;;;;8.50;3.00;;;8.80;1.00;;;;;;4973712;28;20202;-61
2022/04/17 00:37:25;;;;;;;4.80;2.70;;;8.90;1.00;;;;;;4973907;28;20214;-61
2022/04/17 00:39:52;;;;;;;3.47;2.40;;;8.90;1.00;;;;;;4973511;28;20245;-61
2022/04/17 00:42:20;;;;;;;2.73;2.33;;;8.80;1.00;;;;;;4973527;28;20205;-62
2022/04/17 00:44:47;;;;;;;3.43;2.70;;;8.70;1.00;;;;;;4973692;28;20217;-62
2022/04/17 00:47:15;;;;;;;3.00;2.70;;;8.70;1.00;;;;;;4973386;28;20214;-61
2022/04/17 00:49:45;;;;;;;4.23;2.67;;;8.70;1.00;;;;;;4973808;28;20197;-62
2022/04/17 00:52:12;;;;;;;4.03;2.80;;;8.60;1.00;;;;;;4973774;28;20236;-61
2022/04/17 00:54:43;;;;;;;6.93;2.83;;;8.60;1.00;;;;;;4973304;28;20221;-61
2022/04/17 00:57:12;;;;;;;4.43;2.80;;;8.60;1.00;;;;;;4975583;28;20679;-61
2022/04/17 00:59:41;;;;;;;5.27;2.57;;;8.60;1.00;;;;;;4973507;28;20272;-62
2022/04/17 01:02:09;;;;;;;3.93;2.90;;;8.50;1.00;;;;;;4973646;28;20206;-62
2022/04/17 01:04:36;;;;;;;4.63;2.83;;;8.50;1.00;;;;;;4973534;28;20287;-61
2022/04/17 01:07:04;;;;;;;6.17;2.83;;;8.50;1.00;;;;;;4973555;28;20209;-61
2022/04/17 01:09:32;;;;;;;4.37;3.23;;;8.50;1.00;;;;;;4973517;28;20201;-62
2022/04/17 01:12:00;;;;;;;3.93;2.60;;;8.50;1.00;;;;;;4973177;28;20202;-61
2022/04/17 01:14:27;;;;;;;4.77;2.70;;;8.50;1.00;;;;;;4973319;28;20199;-61
2022/04/17 01:16:55;;;;;;;5.17;2.80;;;8.50;1.00;;;;;;4973535;28;20301;-61
2022/04/17 01:19:23;;;;;;;3.67;2.70;;;8.40;1.00;;;;;;4973485;28;20198;-61
2022/04/17 01:21:53;;;;;;;3.43;2.50;;;8.40;1.00;;;;;;4973323;28;20287;-61
2022/04/17 01:27:05;;;;;;;5.17;2.90;;;8.30;1.00;;;;;;4973348;28;20186;-62
2022/04/17 01:29:35;;;;;;;2.83;2.50;;;8.30;1.00;;;;;;4973281;28;20202;-61
2022/04/17 01:32:05;;;;;;;3.87;2.60;;;8.20;1.00;;;;;;4973420;28;20179;-61
2022/04/17 01:34:32;;;;;;;4.60;2.50;;;8.20;1.00;;;;;;4973344;28;20684;-61
2022/04/17 01:37:01;;;;;;;3.83;2.77;;;8.20;1.00;;;;;;4973238;28;20615;-61
2022/04/17 01:39:28;;;;;;;3.63;2.60;;;8.20;1.00;;;;;;4973067;28;20206;-61
2022/04/17 01:41:56;;;;;;;3.90;2.47;;;8.10;1.00;;;;;;4973243;28;20274;-62
2022/04/17 01:44:25;;;;;;;3.27;2.70;;;8.00;1.00;;;;;;4972974;28;20271;-62
2022/04/17 01:46:52;;;;;;;3.37;2.60;;;8.00;1.00;;;;;;4973173;28;20201;-61
2022/04/17 01:49:20;;;;;;;4.00;2.60;;;8.00;1.00;;;;;;4973218;28;20200;-62
2022/04/17 01:51:48;;;;;;;5.57;2.90;;;7.90;1.00;;;;;;4973049;28;20213;-62
2022/04/17 01:54:18;;;;;;;3.27;2.80;;;7.80;1.00;;;;;;4973034;28;20209;-62
2022/04/17 01:56:47;;;;;;;6.20;2.90;;;7.70;1.00;;;;;;4972802;28;20687;-62
2022/04/17 01:59:15;;;;;;;4.30;2.67;;;7.60;1.00;;;;;;4972946;28;20208;-62
2022/04/17 02:01:42;;;;;;;3.13;2.60;;;7.40;1.00;;;;;;4973083;28;20255;-62
2022/04/17 02:04:10;;;;;;;3.27;2.73;;;7.30;1.00;;;;;;4972995;28;20260;-62
2022/04/17 02:06:39;;;;;;;4.30;3.00;;;7.20;1.00;;;;;;4975579;28;20205;-61
2022/04/17 02:09:07;;;;;;;3.10;2.73;;;7.20;1.00;;;;;;4976587;28;20305;-62
2022/04/17 02:11:37;;;;;;;3.87;2.93;;;7.10;1.00;;;;;;4976479;28;20226;-62
2022/04/17 02:14:04;;;;;;;3.20;2.70;;;7.10;1.00;;;;;;4976423;28;20208;-62
2022/04/17 02:16:31;;;;;;;3.83;2.93;;;7.10;1.00;;;;;;4976472;28;20263;-61
2022/04/17 02:19:00;;;;;;;3.70;2.87;;;7.30;1.00;;;;;;4976465;28;20571;-61
2022/04/17 02:21:29;;;;;;;4.47;2.70;;;7.40;1.00;;;;;;4976403;28;20200;-61
2022/04/17 02:23:56;;;;;;;3.20;2.83;;;7.30;1.00;;;;;;4976434;28;20297;-62
2022/04/17 02:26:23;;;;;;;3.03;2.70;;;7.20;1.00;;;;;;4976206;28;20265;-62
2022/04/17 02:28:51;;;;;;;5.73;2.83;;;7.20;1.00;;;;;;4976190;28;20244;-62
2022/04/17 02:31:18;;;;;;;3.73;2.83;;;7.10;1.00;;;;;;4976309;28;20206;-61
2022/04/17 02:33:45;;;;;;;4.07;2.60;;;7.10;1.00;;;;;;4976206;28;20239;-61
2022/04/17 02:36:12;;;;;;;3.00;2.73;;;7.10;1.00;;;;;;4976165;28;20195;-61
2022/04/17 02:38:39;;;;;;;4.17;2.77;;;7.20;1.00;;;;;;4976165;28;20222;-62
2022/04/17 02:41:06;;;;;;;2.73;2.53;;;7.20;1.00;;;;;;4975567;28;20688;-61
2022/04/17 02:43:33;;;;;;;5.33;2.67;;;7.30;1.00;;;;;;4975818;28;20192;-62
2022/04/17 02:46:01;;;;;;;3.13;2.43;;;7.30;1.00;;;;;;4975943;28;20227;-61
2022/04/17 02:48:28;;;;;;;2.80;2.60;;;7.40;1.00;;;;;;4975844;28;20206;-61
2022/04/17 02:50:56;;;;;;;3.80;2.70;;;7.40;1.00;;;;;;4975842;28;20202;-62
2022/04/17 02:53:24;;;;;;;2.80;2.60;;;7.40;1.00;;;;;;4975870;28;20299;-61
2022/04/17 02:55:52;;;;;;;2.70;2.40;;;7.30;1.00;;;;;;4975753;28;20205;-62
2022/04/17 02:58:18;;;;;;;3.87;2.53;;;7.30;1.00;;;;;;4975610;28;20209;-62
2022/04/17 03:06:16;;;;;;;2.90;2.70;;;7.40;1.00;;;;;;4975488;28;20666;-61
2022/04/17 03:08:43;;;;;;;4.50;2.70;;;7.30;1.00;;;;;;4975556;28;20223;-61
2022/04/17 03:11:11;;;;;;;3.93;3.13;;;7.30;1.00;;;;;;4975539;28;20195;-61
2022/04/17 03:13:38;;;;;;;3.00;2.80;;;7.20;1.00;;;;;;4975441;28;20203;-61
2022/04/17 03:16:06;;;;;;;4.83;2.73;;;7.10;1.00;;;;;;4975554;28;20240;-61
2022/04/17 03:18:34;;;;;;;3.37;3.00;;;7.00;1.00;;;;;;4976012;28;20204;-61
2022/04/17 03:21:01;;;;;;;3.87;3.10;;;7.00;1.00;;;;;;4975384;28;20574;-61
2022/04/17 03:23:28;;;;;;;3.50;2.77;;;6.90;1.00;;;;;;4975286;28;20234;-61
2022/04/17 03:25:55;;;;;;;4.80;2.83;;;6.90;1.00;;;;;;4975308;28;20323;-61
2022/04/17 03:28:22;;;;;;;8.90;3.20;;;6.90;1.00;;;;;;4975124;28;20551;-61
2022/04/17 03:30:49;;;;;;;3.93;3.10;;;6.90;1.00;;;;;;4974838;28;20206;-61
2022/04/17 03:33:16;;;;;;;4.67;3.10;;;6.90;1.00;;;;;;4975123;28;20257;-61
2022/04/17 03:35:45;;;;;;;4.13;3.00;;;6.70;1.00;;;;;;4975090;28;20282;-61
2022/04/17 03:38:12;;;;;;;4.30;3.10;;;6.60;1.00;;;;;;4974916;28;20218;-61
2022/04/17 03:40:39;;;;;;;4.13;3.20;;;6.50;1.00;;;;;;4974557;28;20238;-61
2022/04/17 03:43:06;;;;;;;3.93;2.80;;;6.40;1.00;;;;;;4974778;28;20207;-61
2022/04/17 03:45:34;;;;;;;6.00;2.93;;;6.40;1.00;;;;;;4974780;28;20276;-61
2022/04/17 03:48:01;;;;;;;4.07;3.10;;;6.30;1.00;;;;;;4974984;28;20209;-61
2022/04/17 03:50:28;;;;;;;4.40;3.27;;;6.40;1.00;;;;;;4974726;28;20203;-61
2022/04/17 03:52:57;;;;;;;4.27;3.00;;;6.40;1.00;;;;;;4974719;28;20210;-61
2022/04/17 03:55:24;;;;;;;3.73;2.90;;;6.40;1.00;;;;;;4974767;28;20198;-62
2022/04/17 03:57:52;;;;;;;3.20;2.90;;;6.50;1.00;;;;;;4974304;28;20297;-62
2022/04/17 04:00:19;;;;;;;4.60;3.23;;;6.40;1.00;;;;;;4974496;28;20214;-61
2022/04/17 04:02:51;;;;;;;4.23;3.13;;;6.40;1.00;;;;;;4974565;28;20199;-62
2022/04/17 04:05:19;;;;;;;4.17;3.17;;;6.30;1.00;;;;;;4974508;28;20207;-62
2022/04/17 04:07:46;;;;;;;4.37;3.20;;;6.20;1.00;;;;;;4974089;28;20662;-61
2022/04/17 04:10:15;;;;;;;4.57;2.90;;;6.20;1.00;;;;;;4974351;28;20214;-62
2022/04/17 04:12:42;;;;;;;3.30;3.00;;;6.20;1.00;;;;;;4974348;28;20196;-62
2022/04/17 04:15:10;;;;;;;4.00;3.10;;;6.20;1.00;;;;;;4974329;28;20224;-61
2022/04/17 04:17:37;;;;;;;4.77;3.23;;;6.20;1.00;;;;;;4974240;28;20594;-62
2022/04/17 04:20:05;;;;;;;3.27;2.97;;;6.20;1.00;;;;;;4974387;28;20194;-61
2022/04/17 04:22:32;;;;;;;3.97;3.13;;;6.10;1.00;;;;;;4974221;28;20209;-61
2022/04/17 04:24:59;;;;;;;3.30;2.93;;;6.10;1.00;;;;;;4974084;28;20206;-63
2022/04/17 04:30:12;;;;;;;5.60;2.80;;;6.00;1.00;;;;;;4974038;28;20183;-62
2022/04/17 04:32:38;;;;;;;3.30;3.00;;;6.00;1.00;;;;;;4974322;28;20205;-62
2022/04/17 04:35:06;;;;;;;3.10;2.80;;;6.10;1.00;;;;;;4977514;28;20226;-62
2022/04/17 04:37:33;;;;;;;2.93;2.50;;;6.20;1.00;;;;;;4974539;28;20198;-61
2022/04/17 04:40:00;;;;;;;2.67;2.47;;;6.30;1.00;;;;;;4973843;28;20261;-62
2022/04/17 04:42:29;;;;;;;3.57;2.60;;;6.30;1.00;;;;;;4973576;28;21046;-60
2022/04/17 04:47:43;;;;;;;3.30;2.60;;;6.40;1.00;;;;;;4948721;28;20207;-60
2022/04/17 04:50:11;;;;;;;3.20;2.90;;;6.40;1.00;;;;;;4973851;28;20218;-60
2022/04/17 04:52:38;;;;;;;4.23;2.77;;;6.40;1.00;;;;;;4973825;28;20200;-60
2022/04/17 04:55:06;;;;;;;3.00;2.70;;;6.40;1.00;;;;;;4973831;28;20212;-60
2022/04/17 04:57:36;;;;;;;4.07;2.93;;;6.30;1.00;;;;;;4973643;28;20230;-60
2022/04/17 05:00:05;;;;;;;3.07;2.80;;;6.20;1.00;;;;;;4973675;28;20179;-60
2022/04/17 05:02:32;;;;;;;7.80;3.17;;;6.30;1.00;;;;;;4973760;28;20226;-60
2022/04/17 05:05:00;;;;;;;2.80;2.60;;;6.30;1.00;;;;;;4973601;28;20592;-62
2022/04/17 05:07:27;;;;;;;2.90;2.70;;;6.40;1.00;;;;;;4973599;28;20203;-63
2022/04/17 05:09:54;;;;;;;2.77;2.57;;;6.50;1.00;;;;;;4973922;28;20209;-62
2022/04/17 05:12:22;;;;;;;3.83;2.67;;;6.70;1.00;;;;;;4973443;28;20210;-63
2022/04/17 05:14:50;;;;;;;5.30;2.93;;;6.80;1.00;;;;;;4973534;28;20204;-63
2022/04/17 05:17:17;;;;;;;3.37;2.73;;;6.80;1.00;;;;;;4973441;28;20195;-62
2022/04/17 05:19:44;;;;;;;4.93;3.10;;;6.80;1.00;;;;;;4973795;28;20583;-61
2022/04/17 05:22:15;;;;;;;3.60;3.00;;;6.80;1.00;;;;;;4973318;28;20194;-63
2022/04/17 05:24:43;;;;;;;5.20;2.83;;;6.90;1.00;;;;;;4973544;28;20197;-63
2022/04/17 05:27:10;;;;;;;3.27;2.90;;;6.90;1.00;;;;;;4973348;28;20223;-65
2022/04/17 05:29:37;;;;;;;3.90;2.90;;;6.90;1.00;;;;;;4973200;28;20258;-63
2022/04/17 05:32:06;;;;;;;4.20;2.77;;;6.90;1.00;;;;;;4973342;28;20254;-63
2022/04/17 05:34:32;;;;;;;3.67;3.30;;;7.00;1.00;;;;;;4973104;28;20762;-63
2022/04/17 05:36:59;;;;;;;2.87;2.60;;;7.00;1.00;;;;;;4973131;28;20224;-63
2022/04/17 05:39:26;;;;;;;3.87;2.60;;;7.10;1.00;;;;;;4973197;28;20208;-63
2022/04/17 05:41:53;;;;;;;3.43;3.13;;;7.10;1.00;;;;;;4975885;28;20603;-64
2022/04/17 05:44:20;;;;;;;3.27;2.70;;;7.20;1.00;;;;;;4976965;28;20212;-64
2022/04/17 05:46:47;;;;;;;4.10;3.20;;;7.20;1.00;;;;;;4977066;28;20204;-63
2022/04/17 05:49:16;;;;;;;4.37;3.17;;;7.40;1.00;;;;;;4977110;28;20562;-64
2022/04/17 05:51:43;;;;;;;4.03;3.00;;;7.60;1.00;;;;;;4976559;28;20206;-65
2022/04/17 05:54:09;;;;;;;3.13;2.87;;;7.70;1.00;;;;;;4976992;28;20547;-65
2022/04/17 05:56:37;;;;;;;4.23;2.90;;;8.00;1.00;;;;;;4976880;28;20229;-65
2022/04/17 05:59:04;;;;;;;4.87;3.20;;;8.20;1.00;;;;;;4976788;28;20297;-64
2022/04/17 06:01:31;;;;;;;4.23;3.03;;;8.70;1.00;;;;;;4976448;28;20668;-64
2022/04/17 06:03:58;;;;;;;3.83;3.33;;;9.30;1.00;;;;;;4976847;28;20214;-64
2022/04/17 06:06:26;;;;;;;4.63;3.10;;;9.70;1.00;;;;;;4976415;28;20867;-64
2022/04/17 06:08:53;;;;;;;3.37;3.07;;;10.10;1.00;;;;;;4976956;28;20241;-64
2022/04/17 06:11:20;;;;;;;3.83;3.07;;;10.40;1.00;;;;;;4976675;28;20206;-65
2022/04/17 06:13:47;;;;;;;3.13;2.83;;;10.40;1.00;;;;;;4976464;28;20206;-64
2022/04/17 06:16:14;;;;;;;4.13;3.00;;;10.40;1.00;;;;;;4976460;28;20265;-64
2022/04/17 06:18:41;;;;;;;2.60;2.40;;;10.40;1.00;;;;;;4976520;28;20205;-64
2022/04/17 06:21:08;;;;;;;3.83;2.67;;;10.20;1.00;;;;;;4976402;28;20601;-64
2022/04/17 06:23:36;;;;;;;3.20;2.67;;;10.40;1.00;;;;;;4976405;28;20200;-64
2022/04/17 06:26:04;;;;;;;4.27;2.67;;;10.50;1.00;;;;;;4976428;28;20303;-64
2022/04/17 06:28:31;;;;;;;3.63;3.13;;;10.60;1.00;;;;;;4976197;28;20291;-65
2022/04/17 06:30:58;;;;;;;2.70;2.50;;;11.10;1.00;;;;;;4976219;28;20195;-65
2022/04/17 06:33:25;;;;;;;3.93;2.83;;;11.20;1.00;;;;;;4976096;28;20676;-65
2022/04/17 06:35:52;;;;;;;2.60;2.40;;;11.30;1.00;;;;;;4976184;28;20235;-65
2022/04/17 06:38:20;;;;;;;3.00;2.70;;;11.70;1.00;;;;;;4976128;28;20231;-65
2022/04/17 06:40:48;;;;;;;2.77;2.57;;;11.50;1.00;;;;;;4976426;28;20260;-65
2022/04/17 06:43:15;;;;;;;4.43;2.47;;;11.80;1.00;;;;;;4978399;28;20213;-65
2022/04/17 06:45:42;;;;;;;3.03;2.67;;;12.00;1.00;;;;;;4976848;28;20212;-65
2022/04/17 06:48:16;;;;;;;3.67;2.60;;;11.90;1.00;;;;;;4976077;28;20212;-65
2022/04/17 06:50:44;;;;;;;3.83;2.80;;;11.60;1.00;;;;;;4976027;28;20200;-64
2022/04/17 06:53:12;;;;;;;2.80;2.60;;;11.80;1.00;;;;;;4974883;28;20208;-65
2022/04/17 06:55:39;;;;;;;5.83;3.00;;;11.80;1.00;;;;;;4975855;28;20212;-65
2022/04/17 06:58:08;;;;;;;4.47;2.73;;;12.00;1.00;;;;;;4975786;28;20216;-65
2022/04/17 07:00:36;;;;;;;3.77;2.70;;;11.70;1.00;;;;;;4975806;28;20269;-65
2022/04/17 07:03:04;;;;;;;3.53;2.73;;;11.90;1.00;;;;;;4976378;28;20586;-64
2022/04/17 07:05:31;;;;;;;2.60;2.40;;;12.40;1.00;;;;;;4975661;28;20202;-64
2022/04/17 07:07:59;;;;;;;3.10;2.70;;;12.50;1.00;;;;;;4975435;28;20261;-65
2022/04/17 07:10:27;;;;;;;2.90;2.57;;;12.50;1.00;;;;;;4976096;28;20209;-62
2022/04/17 07:12:54;;;;;;;3.03;2.40;;;12.40;1.00;;;;;;4974966;28;20194;-64
2022/04/17 07:15:24;;;;;;;2.83;2.40;;;12.30;1.00;;;;;;4974949;28;20198;-65
2022/04/17 07:17:52;;;;;;;2.67;2.43;;;12.70;1.00;;;;;;4975082;28;20803;-63
2022/04/17 07:20:19;;;;;;;3.83;2.50;;;12.90;1.00;;;;;;4975023;28;20207;-65
2022/04/17 07:22:47;;;;;;;2.83;2.53;;;13.00;1.00;;;;;;4975413;28;20206;-65
2022/04/17 07:25:15;;;;;;;3.23;2.30;;;13.20;1.00;;;;;;4975328;28;20388;-64
2022/04/17 07:27:43;;;;;;;2.70;2.30;;;13.50;1.00;;;;;;4975293;28;20579;-65
2022/04/17 07:30:13;;;;;;;3.80;2.53;;;13.50;1.00;;;;;;4974836;28;20206;-62
2022/04/17 07:32:42;;;;;;;2.83;2.47;;;13.70;1.00;;;;;;4975227;28;20210;-63
2022/04/17 07:35:10;;;;;;;3.13;2.60;;;13.60;1.00;;;;;;4974757;28;20265;-63
2022/04/17 07:37:37;;;;;;;3.07;2.37;;;13.30;1.00;;;;;;4974285;28;20729;-63
2022/04/17 07:40:11;;;;;;;3.73;2.90;;;13.20;1.00;;;;;;4975265;28;20198;-63
2022/04/17 07:42:37;;;;;;;3.43;2.20;;;13.40;1.00;;;;;;4975037;28;20186;-63
2022/04/17 07:45:05;;;;;;;4.60;2.30;;;13.70;1.00;;;;;;4975069;28;20203;-63
2022/04/17 07:47:32;;;;;;;3.37;2.37;;;14.30;1.00;;;;;;4975180;28;20194;-63
2022/04/17 07:50:00;;;;;;;5.10;2.70;;;14.30;1.00;;;;;;4974522;28;20230;-64
2022/04/17 07:52:27;;;;;;;3.63;2.30;;;14.30;1.00;;;;;;4974487;28;20210;-64
2022/04/17 07:54:54;;;;;;;2.50;2.30;;;14.00;1.00;;;;;;4974805;28;20209;-63
2022/04/17 07:57:21;;;;;;;2.67;2.47;;;14.20;1.00;;;;;;4974685;28;20225;-63
2022/04/17 07:59:50;;;;;;;2.40;2.20;;;14.40;1.00;;;;;;4974246;28;20202;-64
2022/04/17 08:02:27;;;;;;;2.20;2.00;;;15.10;1.00;;;;;;4974484;28;20221;-65
2022/04/17 08:04:55;;;;;;;2.00;1.90;;;15.10;1.00;;;;;;4974317;28;20197;-64
2022/04/17 08:07:23;;;;;;;4.43;2.50;;;15.40;1.00;;;;;;4974591;28;20209;-63
2022/04/17 08:09:51;;;;;;;2.33;2.13;;;15.00;1.00;;;;;;4977356;28;20204;-64
2022/04/17 08:12:17;;;;;;;2.00;1.90;;;15.00;1.00;;;;;;4974543;28;20217;-63
2022/04/17 08:14:44;;;;;;;3.23;2.20;;;15.10;1.00;;;;;;4974320;28;20733;-64
2022/04/17 08:17:11;;;;;;;2.27;2.07;;;15.00;1.00;;;;;;4974163;28;20214;-64
2022/04/17 08:19:38;;;;;;;2.50;2.03;;;15.20;1.00;;;;;;4974257;28;20285;-63
2022/04/17 08:22:05;;;;;;;1.70;1.60;;;15.50;1.00;;;;;;4974364;28;20213;-63
2022/04/17 08:24:33;;;;;;;2.30;1.90;;;15.40;1.00;;;;;;4973895;28;20202;-63
2022/04/17 08:27:00;;;;;;;2.73;1.90;;;15.30;1.00;;;;;;4974228;28;20202;-63
2022/04/17 08:29:27;;;;;;;2.03;1.93;;;15.30;1.00;;;;;;4974058;28;20213;-63
2022/04/17 08:31:54;;;;;;;2.23;1.80;;;15.20;1.00;;;;;;4974268;28;20709;-63
2022/04/17 08:34:21;;;;;;;2.20;2.00;;;15.40;1.00;;;;;;4973962;28;20222;-63
2022/04/17 08:36:49;;;;;;;2.13;1.90;;;15.50;1.00;;;;;;4973728;28;20219;-63
2022/04/17 08:39:16;;;;;;;2.70;1.67;;;15.30;1.00;;;;;;4973749;28;20737;-63
2022/04/17 08:41:47;;;;;;;2.00;1.83;;;15.20;1.00;;;;;;4973468;28;20278;-63
2022/04/17 08:44:15;;;;;;;1.90;1.80;;;15.20;1.00;;;;;;4973767;28;20192;-64
2022/04/17 08:46:42;;;;;;;6.90;2.00;;;15.70;1.00;;;;;;4973985;28;20211;-64
2022/04/17 08:49:11;;;;;;;1.90;1.80;;;15.40;1.00;;;;;;4973768;28;20211;-64
2022/04/17 08:51:38;;;;;;;1.70;1.60;;;15.40;1.00;;;;;;4973533;28;20239;-65
2022/04/17 08:54:07;;;;;;;2.93;2.00;;;16.00;1.00;;;;;;4973874;28;20321;-65
2022/04/17 08:56:35;;;;;;;2.17;1.73;;;16.20;1.00;;;;;;4973670;28;20223;-65
2022/04/17 08:59:04;;;;;;;2.93;2.00;;;15.90;1.00;;;;;;4973304;28;20210;-66
2022/04/17 09:01:32;;;;;;;2.50;1.70;;;16.10;1.00;;;;;;4973413;28;20242;-65
2022/04/17 09:03:59;;;;;;;2.10;1.80;;;16.30;1.00;;;;;;4973767;28;20287;-65
2022/04/17 09:06:27;;;;;;;2.10;1.90;;;15.90;1.00;;;;;;4966181;28;20203;-66
2022/04/17 09:09:00;;;;;;;2.33;1.93;;;16.10;1.00;;;;;;4954520;28;20202;-63
2022/04/17 09:11:28;;;;;;;2.20;2.00;;;16.10;1.00;;;;;;4954012;28;20247;-63
2022/04/17 09:13:56;;;;;;;1.90;1.80;;;16.20;1.00;;;;;;4955954;28;20203;-63
2022/04/17 09:16:29;;;;;;;2.57;1.70;;;16.50;1.00;;;;;;4974496;28;20531;-63
2022/04/17 09:18:58;;;;;;;1.93;1.70;;;16.90;1.00;;;;;;4967011;28;20554;-63
2022/04/17 09:21:33;;;;;;;17.20;2.53;;;16.90;1.00;;;;;;4976715;28;20247;-64
2022/04/17 09:24:18;;;;;;;2.17;1.90;;;16.80;1.00;;;;;;4972242;28;20268;-68
2022/04/17 09:26:49;;;;;;;2.00;1.80;;;16.90;1.00;;;;;;4961681;28;20641;-61
2022/04/17 09:29:22;;;;;;;1.60;1.50;;;16.70;1.00;;;;;;4971875;28;20823;-63
2022/04/17 09:31:57;;;;;;;2.13;1.90;;;16.70;1.00;;;;;;4958493;28;20256;-62
2022/04/17 09:34:24;;;;;;;2.30;1.90;;;16.50;1.00;;;;;;4971601;28;20200;-62
2022/04/17 09:36:56;;;;;;;2.43;1.90;;;16.50;1.00;;;;;;4960847;28;20221;-62
2022/04/17 09:39:23;;;;;;;2.37;1.83;;;16.40;1.00;;;;;;4969935;28;20185;-62
2022/04/17 09:41:55;;;;;;;1.80;1.70;;;16.60;1.00;;;;;;4968073;28;20233;-61
2022/04/17 09:44:38;;;;;;;1.90;1.77;;;16.70;1.00;;;;;;4972630;28;20904;-62
2022/04/17 09:47:09;;;;;;;2.30;1.80;;;17.00;1.00;;;;;;4964459;28;20193;-62
2022/04/17 09:49:54;;;;;;;4.63;1.60;;;17.20;1.00;;;;;;4967861;28;20281;-62
2022/04/17 09:52:22;;;;;;;1.93;1.53;;;18.10;1.00;;;;;;4989258;28;20289;-62
2022/04/17 09:54:49;;;;;;;1.80;1.70;;;17.90;1.00;;;;;;4974213;28;20204;-62
2022/04/17 09:57:21;;;;;;;2.37;1.60;;;18.10;1.00;;;;;;4973402;28;20268;-61
2022/04/17 09:59:48;;;;;;;2.63;1.80;;;18.70;1.00;;;;;;4953740;28;20211;-61
2022/04/17 10:02:19;;;;;;;1.70;1.60;;;18.60;1.00;;;;;;4984866;28;20598;-61
2022/04/17 10:04:46;;;;;;;3.10;1.93;;;18.20;1.00;;;;;;4971454;28;20202;-61
2022/04/17 10:07:14;;;;;;;2.13;1.90;;;18.40;1.00;;;;;;4972342;28;20202;-61
2022/04/17 10:09:43;;;;;;;1.60;1.50;;;18.90;1.00;;;;;;4972305;28;20202;-62
2022/04/17 10:12:14;;;;;;;3.97;1.73;;;18.90;1.00;;;;;;4971479;28;20287;-61
2022/04/17 10:14:42;;;;;;;3.27;2.00;;;18.90;1.00;;;;;;4961590;28;20686;-62
2022/04/17 10:17:09;;;;;;;2.05;1.77;;;18.90;1.00;;;;;;4971834;28;20222;-62
2022/04/17 10:19:42;;;;;;;2.03;1.70;;;19.20;1.00;;;;;;4972810;28;20194;-62
2022/04/17 10:22:11;;;;;;;1.80;1.67;;;19.60;1.00;;;;;;4970629;28;20216;-62
2022/04/17 10:24:44;;;;;;;2.10;1.80;;;20.00;1.00;;;;;;4971820;28;20252;-63
2022/04/17 10:27:15;;;;;;;1.67;1.57;;;19.90;1.00;;;;;;4964758;28;20214;-62
2022/04/17 10:29:44;;;;;;;1.80;1.70;;;19.70;1.00;;;;;;4967901;28;20562;-61
2022/04/17 10:32:29;;;;;;;2.80;1.67;;;19.40;1.00;;;;;;4977621;28;20203;-61
2022/04/17 10:35:26;;;;;;;2.17;1.97;;;19.00;1.00;;;;;;4964404;28;20183;-63
2022/04/17 10:38:21;;;;;;;2.53;1.87;;;19.00;1.00;;;;;;4975775;28;20216;-61
2022/04/17 10:40:54;;;;;;;1.90;1.80;;;19.40;1.00;;;;;;4968939;28;20256;-61
2022/04/17 10:43:22;;;;;;;2.67;1.70;;;20.00;1.00;;;;;;4975691;28;20556;-62
2022/04/17 10:46:09;;;;;;;2.57;2.00;;;20.00;1.00;;;;;;4975404;28;20746;-62
2022/04/17 10:48:44;;;;;;;3.17;1.97;;;19.50;1.00;;;;;;4976102;28;20194;-62
2022/04/17 10:51:17;;;;;;;3.23;2.00;;;19.90;1.00;;;;;;4968053;28;20795;-64
2022/04/17 10:53:52;;;;;;;2.92;1.88;;;19.80;1.00;;;;;;4972622;28;20242;-64
2022/04/17 10:56:21;;;;;;;2.10;1.90;;;20.10;1.00;;;;;;4967126;28;20619;-62
2022/04/17 10:58:53;;;;;;;4.20;1.77;;;20.40;1.00;;;;;;4970106;28;20743;-62
2022/04/17 11:01:51;;;;;;;3.13;1.95;;;20.90;1.00;;;;;;4972981;28;20202;-64
2022/04/17 11:04:19;;;;;;;2.63;1.75;;;21.10;1.00;;;;;;4960895;28;20281;-63
2022/04/17 11:06:53;;;;;;;3.88;2.08;;;21.20;1.00;;;;;;4969701;28;20198;-63
2022/04/17 11:09:22;;;;;;;2.53;1.80;;;21.40;1.00;;;;;;4972507;28;20292;-62
2022/04/17 11:11:50;;;;;;;6.35;2.22;;;21.50;1.00;;;;;;4966834;28;20628;-61
2022/04/17 11:14:19;;;;;;;2.85;1.70;;;21.10;1.00;;;;;;4963738;28;20547;-63
2022/04/17 11:16:50;;;;;;;2.20;1.98;;;20.40;1.00;;;;;;4973455;28;20226;-64
2022/04/17 11:19:18;;;;;;;5.00;1.63;;;20.10;1.00;;;;;;4975527;28;20206;-61
2022/04/17 11:21:50;;;;;;;3.38;2.03;;;20.50;1.00;;;;;;4975903;28;20195;-62
2022/04/17 11:24:17;;;;;;;2.97;2.00;;;20.70;1.00;;;;;;4974178;28;20620;-60
2022/04/17 11:27:10;;;;;;;3.05;1.90;;;20.90;1.00;;;;;;4968775;28;20211;-60
2022/04/17 11:29:43;;;;;;;2.17;1.80;;;21.00;1.00;;;;;;4970939;28;20615;-61
2022/04/17 11:32:51;;;;;;;4.63;1.70;;;20.70;1.00;;;;;;4975327;28;20193;-63
2022/04/17 11:35:21;;;;;;;2.40;2.13;;;21.10;1.00;;;;;;4975013;28;20213;-61
2022/04/17 11:38:01;;;;;;;3.33;1.77;;;20.90;1.00;;;;;;4970075;28;20320;-61
2022/04/17 11:40:31;;;;;;;2.20;2.00;;;20.90;1.00;;;;;;4973303;28;20186;-61
2022/04/17 11:43:06;;;;;;;1.77;1.65;;;21.00;1.00;;;;;;4974591;28;20190;-61
2022/04/17 11:45:33;;;;;;;2.97;1.75;;;20.80;1.00;;;;;;4971757;28;20186;-62
2022/04/17 11:48:05;;;;;;;3.63;2.45;;;21.10;1.00;;;;;;4971044;28;20187;-61
2022/04/17 11:50:32;;;;;;;2.38;1.75;;;21.10;1.00;;;;;;4972870;28;20190;-62
2022/04/17 11:53:02;;;;;;;2.15;1.95;;;21.40;1.00;;;;;;4974251;28;20242;-63
2022/04/17 11:55:31;;;;;;;2.38;2.00;;;21.70;1.00;;;;;;4973932;28;20353;-61
2022/04/17 11:57:59;;;;;;;2.80;2.00;;;21.40;1.00;;;;;;4972535;28;20301;-62
2022/04/17 12:00:27;;;;;;;4.32;2.10;;;21.30;1.00;;;;;;4973756;28;20679;-63
2022/04/17 12:03:02;;;;;;;3.13;1.90;;;21.50;1.00;;;;;;4973817;28;20203;-63
2022/04/17 12:05:30;;;;;;;5.45;2.25;;;21.90;1.00;;;;;;4976163;28;20241;-63
2022/04/17 12:08:02;;;;;;;2.83;1.98;;;21.00;1.00;;;;;;4973943;28;20257;-61
2022/04/17 12:10:29;;;;;;;3.05;1.95;;;21.20;1.00;;;;;;4973644;28;20196;-61
2022/04/17 12:12:56;;;;;;;3.47;1.90;;;21.50;1.00;;;;;;4973664;28;20594;-61
2022/04/17 12:15:23;;;;;;;3.08;1.85;;;21.50;1.00;;;;;;4974019;28;20206;-62
2022/04/17 12:18:00;;;;;;;4.40;2.20;;;21.50;1.00;;;;;;4973945;28;20650;-61
2022/04/17 12:20:28;;;;;;;3.38;2.10;;;21.20;1.00;;;;;;4973870;28;20586;-62
2022/04/17 12:22:55;;;;;;;2.25;2.05;;;21.10;1.00;;;;;;4973525;28;20595;-61
2022/04/17 12:25:26;;;;;;;3.05;1.70;;;21.00;1.00;;;;;;4967514;28;20309;-59
2022/04/17 12:27:55;;;;;;;3.38;2.17;;;20.90;1.00;;;;;;4961460;28;20189;-64
2022/04/17 12:30:25;;;;;;;2.92;2.05;;;20.70;1.00;;;;;;4970864;28;20213;-64
2022/04/17 12:32:55;;;;;;;2.17;1.90;;;20.50;1.00;;;;;;4973439;28;20728;-67
2022/04/17 12:35:24;;;;;;;3.70;1.95;;;20.90;1.00;;;;;;4978976;28;20252;-64
2022/04/17 12:38:02;;;;;;;1.90;1.70;;;20.60;1.00;;;;;;4971911;28;20213;-64
2022/04/17 12:40:31;;;;;;;5.00;2.67;;;20.70;1.00;;;;;;4968869;28;20242;-64
2022/04/17 12:43:16;;;;;;;2.70;2.50;;;20.90;1.00;;;;;;4972193;28;20189;-65
2022/04/17 12:45:58;;;;;;;5.40;2.22;;;20.70;1.00;;;;;;4972494;28;20182;-66
2022/04/17 12:48:27;;;;;;;2.22;1.70;;;20.90;1.00;;;;;;4955581;28;20595;-65
2022/04/17 12:50:58;;;;;;;5.65;2.72;;;20.70;1.00;;;;;;4972436;28;20190;-65
2022/04/17 12:53:25;;;;;;;2.65;2.45;;;20.80;1.00;;;;;;4974841;28;20217;-66
2022/04/17 12:55:54;;;;;;;2.38;2.17;;;20.90;1.00;;;;;;4973497;28;20202;-66
2022/04/17 12:58:22;;;;;;;4.22;2.40;;;20.20;1.00;;;;;;4970738;28;20759;-66
2022/04/17 13:00:59;;;;;;;4.60;2.30;;;20.00;1.00;;;;;;4972614;28;20245;-66
2022/04/17 13:03:35;;;;;;;2.20;2.00;;;19.90;1.00;;;;;;4973544;28;20194;-65
2022/04/17 13:06:03;;;;;;;4.65;2.10;;;20.20;1.00;;;;;;4960288;28;20544;-67
2022/04/17 13:08:31;;;;;;;2.97;1.90;;;20.20;1.00;;;;;;4969110;28;20199;-67
2022/04/17 13:10:59;;;;;;;2.30;1.57;;;20.00;1.00;;;;;;4953700;28;20201;-66
2022/04/17 13:13:39;;;;;;;2.33;2.00;;;20.20;1.00;;;;;;4952662;28;20205;-66
2022/04/17 13:16:07;;;;;;;3.13;1.48;;;20.10;1.00;;;;;;4952643;28;20200;-68
2022/04/17 13:18:35;;;;;;;2.22;1.67;;;20.20;1.00;;;;;;4952365;28;20310;-66
2022/04/17 13:21:02;;;;;;;2.80;1.50;;;20.10;1.00;;;;;;4952558;28;20220;-67
2022/04/17 13:23:29;;;;;;;1.67;1.40;;;20.00;1.00;;;;;;4952277;28;20234;-67
2022/04/17 13:25:57;;;;;;;1.87;1.70;;;19.90;1.00;;;;;;4953531;28;20213;-67